sensor_id;sensor_type;location;lat;lon;timestamp;P1;durP1;ratioP1;P2;durP2;ratioP2
21636;SDS011;10980;49.596;6.142;2022-07-11T00:00:51;6.90;;;1.80;;
21636;SDS011;10980;49.596;6.142;2022-07-11T00:04:13;3.30;;;1.65;;
21636;SDS011;10980;49.596;6.142;2022-07-11T00:07:35;4.88;;;1.92;;
21636;SDS011;10980;49.596;6.142;2022-07-11T00:10:58;7.05;;;1.80;;
21636;SDS011;10980;49.596;6.142;2022-07-11T00:14:20;5.40;;;1.88;;
21636;SDS011;10980;49.596;6.142;2022-07-11T00:17:42;6.03;;;2.08;;
21636;SDS011;10980;49.596;6.142;2022-07-11T00:21:04;3.30;;;1.75;;
21636;SDS011;10980;49.596;6.142;2022-07-11T00:24:26;7.93;;;1.90;;
21636;SDS011;10980;49.596;6.142;2022-07-11T00:27:48;3.60;;;1.70;;
21636;SDS011;10980;49.596;6.142;2022-07-11T00:31:11;6.40;;;1.90;;
21636;SDS011;10980;49.596;6.142;2022-07-11T00:34:33;5.30;;;1.85;;
21636;SDS011;10980;49.596;6.142;2022-07-11T00:37:55;4.57;;;1.70;;
21636;SDS011;10980;49.596;6.142;2022-07-11T00:41:17;6.93;;;1.95;;
21636;SDS011;10980;49.596;6.142;2022-07-11T00:44:40;4.03;;;2.05;;
21636;SDS011;10980;49.596;6.142;2022-07-11T00:48:01;4.75;;;1.60;;
21636;SDS011;10980;49.596;6.142;2022-07-11T00:51:23;4.50;;;1.60;;
21636;SDS011;10980;49.596;6.142;2022-07-11T00:54:46;4.90;;;1.52;;
21636;SDS011;10980;49.596;6.142;2022-07-11T00:58:08;4.10;;;1.60;;
21636;SDS011;10980;49.596;6.142;2022-07-11T01:01:31;3.88;;;1.88;;
21636;SDS011;10980;49.596;6.142;2022-07-11T01:04:55;3.75;;;1.70;;
21636;SDS011;10980;49.596;6.142;2022-07-11T01:08:17;2.15;;;1.60;;
21636;SDS011;10980;49.596;6.142;2022-07-11T01:11:39;4.57;;;1.83;;
21636;SDS011;10980;49.596;6.142;2022-07-11T01:15:02;4.25;;;2.20;;
21636;SDS011;10980;49.596;6.142;2022-07-11T01:18:24;8.80;;;2.72;;
21636;SDS011;10980;49.596;6.142;2022-07-11T01:21:49;3.55;;;1.95;;
21636;SDS011;10980;49.596;6.142;2022-07-11T01:25:11;3.08;;;1.65;;
21636;SDS011;10980;49.596;6.142;2022-07-11T01:28:51;3.58;;;1.95;;
21636;SDS011;10980;49.596;6.142;2022-07-11T01:32:13;4.00;;;2.30;;
21636;SDS011;10980;49.596;6.142;2022-07-11T01:35:38;7.07;;;1.90;;
21636;SDS011;10980;49.596;6.142;2022-07-11T01:39:00;5.30;;;2.10;;
21636;SDS011;10980;49.596;6.142;2022-07-11T01:42:21;5.85;;;2.30;;
21636;SDS011;10980;49.596;6.142;2022-07-11T01:45:43;3.42;;;2.40;;
21636;SDS011;10980;49.596;6.142;2022-07-11T01:49:05;6.22;;;2.72;;
21636;SDS011;10980;49.596;6.142;2022-07-11T01:52:27;4.80;;;2.35;;
21636;SDS011;10980;49.596;6.142;2022-07-11T01:55:49;4.93;;;2.28;;
21636;SDS011;10980;49.596;6.142;2022-07-11T01:59:31;4.78;;;2.70;;
21636;SDS011;10980;49.596;6.142;2022-07-11T02:02:53;4.18;;;2.22;;
21636;SDS011;10980;49.596;6.142;2022-07-11T02:06:15;6.53;;;2.17;;
21636;SDS011;10980;49.596;6.142;2022-07-11T02:09:37;4.75;;;2.10;;
21636;SDS011;10980;49.596;6.142;2022-07-11T02:13:00;5.05;;;2.10;;
21636;SDS011;10980;49.596;6.142;2022-07-11T02:16:22;3.65;;;2.22;;
21636;SDS011;10980;49.596;6.142;2022-07-11T02:19:44;4.15;;;2.40;;
21636;SDS011;10980;49.596;6.142;2022-07-11T02:23:06;4.13;;;1.90;;
21636;SDS011;10980;49.596;6.142;2022-07-11T02:26:29;8.23;;;2.50;;
21636;SDS011;10980;49.596;6.142;2022-07-11T02:29:50;5.45;;;2.30;;
21636;SDS011;10980;49.596;6.142;2022-07-11T02:33:12;6.38;;;2.20;;
21636;SDS011;10980;49.596;6.142;2022-07-11T02:36:37;4.35;;;1.90;;
21636;SDS011;10980;49.596;6.142;2022-07-11T02:39:59;4.60;;;1.95;;
21636;SDS011;10980;49.596;6.142;2022-07-11T02:43:21;3.33;;;2.20;;
21636;SDS011;10980;49.596;6.142;2022-07-11T02:46:43;4.53;;;2.30;;
21636;SDS011;10980;49.596;6.142;2022-07-11T02:50:08;4.72;;;2.28;;
21636;SDS011;10980;49.596;6.142;2022-07-11T02:53:32;4.10;;;2.25;;
21636;SDS011;10980;49.596;6.142;2022-07-11T02:56:54;7.32;;;2.50;;
21636;SDS011;10980;49.596;6.142;2022-07-11T03:00:17;5.75;;;2.72;;
21636;SDS011;10980;49.596;6.142;2022-07-11T03:03:39;8.60;;;2.67;;
21636;SDS011;10980;49.596;6.142;2022-07-11T03:07:01;10.15;;;5.22;;
21636;SDS011;10980;49.596;6.142;2022-07-11T03:10:23;1999.90;;;999.90;;
21636;SDS011;10980;49.596;6.142;2022-07-11T03:13:46;1702.78;;;614.42;;
21636;SDS011;10980;49.596;6.142;2022-07-11T03:17:08;1999.90;;;473.00;;
21636;SDS011;10980;49.596;6.142;2022-07-11T03:20:30;1999.90;;;628.05;;
21636;SDS011;10980;49.596;6.142;2022-07-11T03:23:52;1888.57;;;444.05;;
21636;SDS011;10980;49.596;6.142;2022-07-11T03:27:15;1218.03;;;320.05;;
21636;SDS011;10980;49.596;6.142;2022-07-11T03:30:36;902.83;;;255.63;;
21636;SDS011;10980;49.596;6.142;2022-07-11T03:33:58;748.38;;;200.93;;
21636;SDS011;10980;49.596;6.142;2022-07-11T03:37:20;428.05;;;128.07;;
21636;SDS011;10980;49.596;6.142;2022-07-11T03:40:42;279.10;;;76.05;;
21636;SDS011;10980;49.596;6.142;2022-07-11T03:44:05;313.38;;;95.80;;
21636;SDS011;10980;49.596;6.142;2022-07-11T03:47:26;141.15;;;45.30;;
21636;SDS011;10980;49.596;6.142;2022-07-11T03:50:48;74.22;;;34.63;;
21636;SDS011;10980;49.596;6.142;2022-07-11T03:54:11;61.28;;;23.88;;
21636;SDS011;10980;49.596;6.142;2022-07-11T03:57:33;31.13;;;11.45;;
21636;SDS011;10980;49.596;6.142;2022-07-11T04:00:55;34.55;;;11.70;;
21636;SDS011;10980;49.596;6.142;2022-07-11T04:04:17;30.08;;;11.27;;
21636;SDS011;10980;49.596;6.142;2022-07-11T04:07:39;19.15;;;8.77;;
21636;SDS011;10980;49.596;6.142;2022-07-11T04:11:03;10.85;;;5.38;;
21636;SDS011;10980;49.596;6.142;2022-07-11T04:14:25;11.70;;;4.88;;
21636;SDS011;10980;49.596;6.142;2022-07-11T04:17:47;5.65;;;3.85;;
21636;SDS011;10980;49.596;6.142;2022-07-11T04:21:09;8.32;;;4.50;;
21636;SDS011;10980;49.596;6.142;2022-07-11T04:24:31;10.45;;;4.13;;
21636;SDS011;10980;49.596;6.142;2022-07-11T04:27:52;4.93;;;3.90;;
21636;SDS011;10980;49.596;6.142;2022-07-11T04:31:14;8.10;;;4.00;;
21636;SDS011;10980;49.596;6.142;2022-07-11T04:34:36;4.82;;;2.30;;
21636;SDS011;10980;49.596;6.142;2022-07-11T04:37:58;4.00;;;2.38;;
21636;SDS011;10980;49.596;6.142;2022-07-11T04:41:20;5.15;;;2.63;;
21636;SDS011;10980;49.596;6.142;2022-07-11T04:44:42;7.05;;;2.90;;
21636;SDS011;10980;49.596;6.142;2022-07-11T04:48:04;7.53;;;2.90;;
21636;SDS011;10980;49.596;6.142;2022-07-11T04:51:26;5.82;;;3.47;;
21636;SDS011;10980;49.596;6.142;2022-07-11T04:54:48;5.93;;;2.55;;
21636;SDS011;10980;49.596;6.142;2022-07-11T04:58:10;8.32;;;3.15;;
21636;SDS011;10980;49.596;6.142;2022-07-11T05:01:34;8.65;;;2.60;;
21636;SDS011;10980;49.596;6.142;2022-07-11T05:04:56;12.15;;;4.10;;
21636;SDS011;10980;49.596;6.142;2022-07-11T05:08:18;12.40;;;3.53;;
21636;SDS011;10980;49.596;6.142;2022-07-11T05:11:40;7.20;;;2.30;;
21636;SDS011;10980;49.596;6.142;2022-07-11T05:15:02;7.97;;;3.08;;
21636;SDS011;10980;49.596;6.142;2022-07-11T05:18:24;16.80;;;3.53;;
21636;SDS011;10980;49.596;6.142;2022-07-11T05:21:46;11.07;;;3.45;;
21636;SDS011;10980;49.596;6.142;2022-07-11T05:25:07;8.55;;;3.58;;
21636;SDS011;10980;49.596;6.142;2022-07-11T05:28:30;10.50;;;3.88;;
21636;SDS011;10980;49.596;6.142;2022-07-11T05:31:52;8.77;;;3.53;;
21636;SDS011;10980;49.596;6.142;2022-07-11T05:35:14;13.85;;;3.03;;
21636;SDS011;10980;49.596;6.142;2022-07-11T05:38:36;10.32;;;3.25;;
21636;SDS011;10980;49.596;6.142;2022-07-11T05:41:59;6.03;;;3.40;;
21636;SDS011;10980;49.596;6.142;2022-07-11T05:45:21;8.13;;;3.75;;
21636;SDS011;10980;49.596;6.142;2022-07-11T05:48:42;6.25;;;4.97;;
21636;SDS011;10980;49.596;6.142;2022-07-11T05:52:07;4.57;;;3.58;;
21636;SDS011;10980;49.596;6.142;2022-07-11T05:55:30;6.25;;;3.60;;
21636;SDS011;10980;49.596;6.142;2022-07-11T05:58:52;10.15;;;5.70;;
21636;SDS011;10980;49.596;6.142;2022-07-11T06:02:14;10.55;;;5.68;;
21636;SDS011;10980;49.596;6.142;2022-07-11T06:05:37;14.60;;;4.55;;
21636;SDS011;10980;49.596;6.142;2022-07-11T06:08:58;22.73;;;8.75;;
21636;SDS011;10980;49.596;6.142;2022-07-11T06:12:20;11.70;;;7.55;;
21636;SDS011;10980;49.596;6.142;2022-07-11T06:15:45;23.17;;;9.77;;
21636;SDS011;10980;49.596;6.142;2022-07-11T06:19:08;41.50;;;15.43;;
21636;SDS011;10980;49.596;6.142;2022-07-11T06:22:30;38.65;;;15.27;;
21636;SDS011;10980;49.596;6.142;2022-07-11T06:25:52;75.88;;;33.22;;
21636;SDS011;10980;49.596;6.142;2022-07-11T06:29:13;62.58;;;17.85;;
21636;SDS011;10980;49.596;6.142;2022-07-11T06:32:35;63.10;;;29.75;;
21636;SDS011;10980;49.596;6.142;2022-07-11T06:35:57;75.57;;;35.50;;
21636;SDS011;10980;49.596;6.142;2022-07-11T06:39:19;98.20;;;36.15;;
21636;SDS011;10980;49.596;6.142;2022-07-11T06:42:41;126.53;;;48.47;;
21636;SDS011;10980;49.596;6.142;2022-07-11T06:46:03;313.98;;;112.00;;
21636;SDS011;10980;49.596;6.142;2022-07-11T06:49:24;643.47;;;225.90;;
21636;SDS011;10980;49.596;6.142;2022-07-11T06:52:47;802.97;;;278.63;;
21636;SDS011;10980;49.596;6.142;2022-07-11T06:56:09;722.15;;;227.32;;
21636;SDS011;10980;49.596;6.142;2022-07-11T06:59:31;727.80;;;238.50;;
21636;SDS011;10980;49.596;6.142;2022-07-11T07:02:56;1999.88;;;621.92;;
21636;SDS011;10980;49.596;6.142;2022-07-11T07:06:18;564.03;;;209.95;;
21636;SDS011;10980;49.596;6.142;2022-07-11T07:09:40;941.97;;;282.58;;
21636;SDS011;10980;49.596;6.142;2022-07-11T07:13:02;1631.60;;;502.60;;
21636;SDS011;10980;49.596;6.142;2022-07-11T07:16:24;1999.90;;;734.65;;
21636;SDS011;10980;49.596;6.142;2022-07-11T07:19:46;1999.90;;;996.22;;
21636;SDS011;10980;49.596;6.142;2022-07-11T07:23:08;1999.90;;;999.90;;
21636;SDS011;10980;49.596;6.142;2022-07-11T07:26:30;1999.90;;;999.90;;
21636;SDS011;10980;49.596;6.142;2022-07-11T07:29:52;1999.90;;;999.90;;
21636;SDS011;10980;49.596;6.142;2022-07-11T07:33:15;1999.90;;;826.63;;
21636;SDS011;10980;49.596;6.142;2022-07-11T07:36:56;1999.90;;;668.53;;
21636;SDS011;10980;49.596;6.142;2022-07-11T07:40:18;1999.90;;;510.85;;
21636;SDS011;10980;49.596;6.142;2022-07-11T07:43:40;1999.90;;;999.90;;
21636;SDS011;10980;49.596;6.142;2022-07-11T07:47:03;1999.90;;;999.90;;
21636;SDS011;10980;49.596;6.142;2022-07-11T07:50:31;1999.90;;;999.90;;
21636;SDS011;10980;49.596;6.142;2022-07-11T07:53:54;1999.90;;;999.90;;
21636;SDS011;10980;49.596;6.142;2022-07-11T07:57:17;1999.90;;;999.90;;
21636;SDS011;10980;49.596;6.142;2022-07-11T08:00:39;1999.90;;;999.90;;
21636;SDS011;10980;49.596;6.142;2022-07-11T08:04:23;1999.90;;;999.90;;
21636;SDS011;10980;49.596;6.142;2022-07-11T08:07:45;1999.90;;;999.90;;
21636;SDS011;10980;49.596;6.142;2022-07-11T08:11:08;1999.90;;;999.90;;
21636;SDS011;10980;49.596;6.142;2022-07-11T08:14:51;1999.90;;;999.90;;
21636;SDS011;10980;49.596;6.142;2022-07-11T08:18:15;1999.90;;;999.90;;
21636;SDS011;10980;49.596;6.142;2022-07-11T08:21:37;1999.90;;;999.90;;
21636;SDS011;10980;49.596;6.142;2022-07-11T08:24:59;1999.90;;;999.90;;
21636;SDS011;10980;49.596;6.142;2022-07-11T08:28:21;1999.90;;;999.90;;
21636;SDS011;10980;49.596;6.142;2022-07-11T08:31:42;1999.90;;;999.90;;
21636;SDS011;10980;49.596;6.142;2022-07-11T08:35:04;1999.90;;;999.90;;
21636;SDS011;10980;49.596;6.142;2022-07-11T08:38:27;1999.90;;;999.90;;
21636;SDS011;10980;49.596;6.142;2022-07-11T08:41:48;1999.90;;;999.90;;
21636;SDS011;10980;49.596;6.142;2022-07-11T08:45:14;1999.90;;;999.90;;
21636;SDS011;10980;49.596;6.142;2022-07-11T08:48:40;1999.90;;;483.73;;
21636;SDS011;10980;49.596;6.142;2022-07-11T08:52:03;1999.90;;;990.60;;
21636;SDS011;10980;49.596;6.142;2022-07-11T08:55:26;1999.90;;;898.50;;
21636;SDS011;10980;49.596;6.142;2022-07-11T08:58:48;1999.90;;;999.90;;
21636;SDS011;10980;49.596;6.142;2022-07-11T09:02:16;1999.90;;;999.90;;
21636;SDS011;10980;49.596;6.142;2022-07-11T09:05:38;1999.90;;;614.10;;
21636;SDS011;10980;49.596;6.142;2022-07-11T09:09:01;1999.90;;;897.10;;
21636;SDS011;10980;49.596;6.142;2022-07-11T09:12:23;533.92;;;229.25;;
21636;SDS011;10980;49.596;6.142;2022-07-11T09:15:45;62.42;;;37.88;;
21636;SDS011;10980;49.596;6.142;2022-07-11T09:19:27;11.93;;;9.68;;
21636;SDS011;10980;49.596;6.142;2022-07-11T09:22:50;65.53;;;43.15;;
21636;SDS011;10980;49.596;6.142;2022-07-11T09:26:41;52.88;;;22.33;;
21636;SDS011;10980;49.596;6.142;2022-07-11T09:30:26;8.75;;;7.88;;
21636;SDS011;10980;49.596;6.142;2022-07-11T09:34:07;4.78;;;3.25;;
21636;SDS011;10980;49.596;6.142;2022-07-11T09:37:51;0.90;;;0.50;;
21636;SDS011;10980;49.596;6.142;2022-07-11T09:41:13;1.63;;;0.50;;
21636;SDS011;10980;49.596;6.142;2022-07-11T09:44:36;5.93;;;0.40;;
21636;SDS011;10980;49.596;6.142;2022-07-11T09:47:58;0.50;;;0.20;;
21636;SDS011;10980;49.596;6.142;2022-07-11T09:51:21;0.93;;;0.20;;
21636;SDS011;10980;49.596;6.142;2022-07-11T09:58:16;0.70;;;0.28;;
21636;SDS011;10980;49.596;6.142;2022-07-11T10:01:38;2.53;;;0.40;;
21636;SDS011;10980;49.596;6.142;2022-07-11T10:05:01;1.33;;;0.40;;
21636;SDS011;10980;49.596;6.142;2022-07-11T10:08:23;7.05;;;1.23;;
21636;SDS011;10980;49.596;6.142;2022-07-11T10:11:46;0.98;;;0.50;;
21636;SDS011;10980;49.596;6.142;2022-07-11T10:15:08;0.70;;;0.30;;
21636;SDS011;10980;49.596;6.142;2022-07-11T10:18:33;1.10;;;0.30;;
21636;SDS011;10980;49.596;6.142;2022-07-11T10:22:09;1.15;;;0.40;;
21636;SDS011;10980;49.596;6.142;2022-07-11T10:25:46;0.73;;;0.25;;
21636;SDS011;10980;49.596;6.142;2022-07-11T10:29:19;0.70;;;0.30;;
21636;SDS011;10980;49.596;6.142;2022-07-11T10:32:57;0.57;;;0.25;;
21636;SDS011;10980;49.596;6.142;2022-07-11T10:36:27;1.27;;;0.20;;
21636;SDS011;10980;49.596;6.142;2022-07-11T10:39:56;0.77;;;0.32;;
21636;SDS011;10980;49.596;6.142;2022-07-11T10:46:44;0.75;;;0.35;;
21636;SDS011;10980;49.596;6.142;2022-07-11T10:53:47;0.35;;;0.22;;
21636;SDS011;10980;49.596;6.142;2022-07-11T10:57:22;0.38;;;0.32;;
21636;SDS011;10980;49.596;6.142;2022-07-11T11:04:50;5.57;;;0.60;;
21636;SDS011;10980;49.596;6.142;2022-07-11T11:11:53;0.43;;;0.30;;
21636;SDS011;10980;49.596;6.142;2022-07-11T11:18:56;1.77;;;0.63;;
21636;SDS011;10980;49.596;6.142;2022-07-11T11:22:19;1.48;;;0.60;;
21636;SDS011;10980;49.596;6.142;2022-07-11T11:25:42;2.45;;;0.40;;
21636;SDS011;10980;49.596;6.142;2022-07-11T11:29:11;1.83;;;0.65;;
21636;SDS011;10980;49.596;6.142;2022-07-11T11:32:38;4.68;;;0.40;;
21636;SDS011;10980;49.596;6.142;2022-07-11T11:36:07;1.63;;;0.50;;
21636;SDS011;10980;49.596;6.142;2022-07-11T11:39:36;3.33;;;0.52;;
21636;SDS011;10980;49.596;6.142;2022-07-11T11:43:00;2.80;;;0.57;;
21636;SDS011;10980;49.596;6.142;2022-07-11T11:46:29;4.18;;;0.68;;
21636;SDS011;10980;49.596;6.142;2022-07-11T11:49:52;9.32;;;0.70;;
21636;SDS011;10980;49.596;6.142;2022-07-11T11:53:14;2.35;;;0.70;;
21636;SDS011;10980;49.596;6.142;2022-07-11T11:56:36;5.00;;;1.10;;
21636;SDS011;10980;49.596;6.142;2022-07-11T12:00:00;1.10;;;0.50;;
21636;SDS011;10980;49.596;6.142;2022-07-11T12:03:24;1.75;;;0.40;;
21636;SDS011;10980;49.596;6.142;2022-07-11T12:06:46;0.68;;;0.50;;
21636;SDS011;10980;49.596;6.142;2022-07-11T12:10:10;4.75;;;0.80;;
21636;SDS011;10980;49.596;6.142;2022-07-11T12:13:32;6.45;;;0.80;;
21636;SDS011;10980;49.596;6.142;2022-07-11T12:16:54;1.08;;;0.57;;
21636;SDS011;10980;49.596;6.142;2022-07-11T12:20:33;1.65;;;0.75;;
21636;SDS011;10980;49.596;6.142;2022-07-11T12:24:05;1.48;;;0.70;;
21636;SDS011;10980;49.596;6.142;2022-07-11T12:27:29;1.98;;;0.70;;
21636;SDS011;10980;49.596;6.142;2022-07-11T12:30:55;5.50;;;0.85;;
21636;SDS011;10980;49.596;6.142;2022-07-11T12:34:18;1.05;;;0.70;;
21636;SDS011;10980;49.596;6.142;2022-07-11T12:37:41;4.05;;;0.60;;
21636;SDS011;10980;49.596;6.142;2022-07-11T12:41:05;1.98;;;0.75;;
21636;SDS011;10980;49.596;6.142;2022-07-11T12:44:28;4.88;;;0.75;;
21636;SDS011;10980;49.596;6.142;2022-07-11T12:48:10;3.53;;;0.70;;
21636;SDS011;10980;49.596;6.142;2022-07-11T12:51:33;1.92;;;0.55;;
21636;SDS011;10980;49.596;6.142;2022-07-11T12:55:01;2.33;;;0.70;;
21636;SDS011;10980;49.596;6.142;2022-07-11T12:58:23;2.08;;;0.90;;
21636;SDS011;10980;49.596;6.142;2022-07-11T13:05:19;3.95;;;1.13;;
21636;SDS011;10980;49.596;6.142;2022-07-11T13:08:41;1.92;;;1.00;;
21636;SDS011;10980;49.596;6.142;2022-07-11T13:12:08;1.98;;;1.10;;
21636;SDS011;10980;49.596;6.142;2022-07-11T13:15:30;2.17;;;0.90;;
21636;SDS011;10980;49.596;6.142;2022-07-11T13:18:52;5.82;;;1.42;;
21636;SDS011;10980;49.596;6.142;2022-07-11T13:22:14;2.20;;;1.20;;
21636;SDS011;10980;49.596;6.142;2022-07-11T13:25:36;1.77;;;1.20;;
21636;SDS011;10980;49.596;6.142;2022-07-11T13:28:58;2.95;;;1.40;;
21636;SDS011;10980;49.596;6.142;2022-07-11T13:32:22;1.50;;;1.25;;
21636;SDS011;10980;49.596;6.142;2022-07-11T13:35:44;2.28;;;1.35;;
21636;SDS011;10980;49.596;6.142;2022-07-11T13:39:07;4.38;;;1.30;;
21636;SDS011;10980;49.596;6.142;2022-07-11T13:42:29;1.40;;;1.13;;
21636;SDS011;10980;49.596;6.142;2022-07-11T13:45:53;5.32;;;1.48;;
21636;SDS011;10980;49.596;6.142;2022-07-11T13:49:15;6.80;;;1.63;;
21636;SDS011;10980;49.596;6.142;2022-07-11T13:52:37;1.58;;;1.27;;
21636;SDS011;10980;49.596;6.142;2022-07-11T13:55:59;4.05;;;1.55;;
21636;SDS011;10980;49.596;6.142;2022-07-11T13:59:21;1.10;;;0.95;;
21636;SDS011;10980;49.596;6.142;2022-07-11T14:02:43;3.35;;;1.45;;
21636;SDS011;10980;49.596;6.142;2022-07-11T14:06:05;2.00;;;1.00;;
21636;SDS011;10980;49.596;6.142;2022-07-11T14:09:27;1.70;;;1.20;;
21636;SDS011;10980;49.596;6.142;2022-07-11T14:12:49;10.73;;;1.40;;
21636;SDS011;10980;49.596;6.142;2022-07-11T14:16:12;2.08;;;1.30;;
21636;SDS011;10980;49.596;6.142;2022-07-11T14:19:47;42.53;;;4.10;;
21636;SDS011;10980;49.596;6.142;2022-07-11T14:23:09;2.85;;;1.10;;
21636;SDS011;10980;49.596;6.142;2022-07-11T14:26:31;1.75;;;1.05;;
21636;SDS011;10980;49.596;6.142;2022-07-11T14:29:56;3.72;;;1.30;;
21636;SDS011;10980;49.596;6.142;2022-07-11T14:33:18;3.05;;;1.38;;
21636;SDS011;10980;49.596;6.142;2022-07-11T14:36:40;1.52;;;1.00;;
21636;SDS011;10980;49.596;6.142;2022-07-11T14:40:03;3.45;;;1.45;;
21636;SDS011;10980;49.596;6.142;2022-07-11T14:43:25;5.25;;;1.42;;
21636;SDS011;10980;49.596;6.142;2022-07-11T14:46:49;1.50;;;1.20;;
21636;SDS011;10980;49.596;6.142;2022-07-11T14:50:11;1.38;;;1.00;;
21636;SDS011;10980;49.596;6.142;2022-07-11T14:53:33;2.53;;;1.10;;
21636;SDS011;10980;49.596;6.142;2022-07-11T14:56:57;2.58;;;1.30;;
21636;SDS011;10980;49.596;6.142;2022-07-11T15:00:19;2.38;;;1.23;;
21636;SDS011;10980;49.596;6.142;2022-07-11T15:03:42;4.53;;;1.20;;
21636;SDS011;10980;49.596;6.142;2022-07-11T15:07:06;3.42;;;1.10;;
21636;SDS011;10980;49.596;6.142;2022-07-11T15:10:47;2.58;;;1.48;;
21636;SDS011;10980;49.596;6.142;2022-07-11T15:14:27;3.38;;;1.40;;
21636;SDS011;10980;49.596;6.142;2022-07-11T15:17:49;8.27;;;1.40;;
21636;SDS011;10980;49.596;6.142;2022-07-11T15:21:12;1.92;;;1.00;;
21636;SDS011;10980;49.596;6.142;2022-07-11T15:24:34;1.77;;;1.35;;
21636;SDS011;10980;49.596;6.142;2022-07-11T15:27:56;2.00;;;1.45;;
21636;SDS011;10980;49.596;6.142;2022-07-11T15:31:18;3.03;;;1.33;;
21636;SDS011;10980;49.596;6.142;2022-07-11T15:34:40;4.38;;;1.42;;
21636;SDS011;10980;49.596;6.142;2022-07-11T15:38:07;3.97;;;1.55;;
21636;SDS011;10980;49.596;6.142;2022-07-11T15:41:29;1.20;;;1.05;;
21636;SDS011;10980;49.596;6.142;2022-07-11T15:44:51;1.40;;;0.95;;
21636;SDS011;10980;49.596;6.142;2022-07-11T15:48:13;1.73;;;1.10;;
21636;SDS011;10980;49.596;6.142;2022-07-11T15:51:35;3.13;;;1.10;;
21636;SDS011;10980;49.596;6.142;2022-07-11T15:54:56;2.25;;;1.23;;
21636;SDS011;10980;49.596;6.142;2022-07-11T15:58:18;1.67;;;1.00;;
21636;SDS011;10980;49.596;6.142;2022-07-11T16:01:43;1.90;;;1.33;;
21636;SDS011;10980;49.596;6.142;2022-07-11T16:05:05;4.80;;;1.10;;
21636;SDS011;10980;49.596;6.142;2022-07-11T16:08:29;2.85;;;1.25;;
21636;SDS011;10980;49.596;6.142;2022-07-11T16:11:51;2.00;;;1.02;;
21636;SDS011;10980;49.596;6.142;2022-07-11T16:15:14;1.90;;;0.88;;
21636;SDS011;10980;49.596;6.142;2022-07-11T16:18:36;2.55;;;0.90;;
21636;SDS011;10980;49.596;6.142;2022-07-11T16:21:58;2.83;;;0.90;;
21636;SDS011;10980;49.596;6.142;2022-07-11T16:25:21;1.50;;;0.90;;
21636;SDS011;10980;49.596;6.142;2022-07-11T16:28:42;1.52;;;0.75;;
21636;SDS011;10980;49.596;6.142;2022-07-11T16:32:04;1.58;;;0.77;;
21636;SDS011;10980;49.596;6.142;2022-07-11T16:35:27;3.78;;;0.90;;
21636;SDS011;10980;49.596;6.142;2022-07-11T16:38:50;1.98;;;1.15;;
21636;SDS011;10980;49.596;6.142;2022-07-11T16:42:31;2.45;;;1.00;;
21636;SDS011;10980;49.596;6.142;2022-07-11T16:46:12;3.88;;;1.55;;
21636;SDS011;10980;49.596;6.142;2022-07-11T16:49:34;3.47;;;1.02;;
21636;SDS011;10980;49.596;6.142;2022-07-11T16:52:56;2.20;;;0.90;;
21636;SDS011;10980;49.596;6.142;2022-07-11T16:56:18;4.43;;;1.00;;
21636;SDS011;10980;49.596;6.142;2022-07-11T16:59:40;0.98;;;0.80;;
21636;SDS011;10980;49.596;6.142;2022-07-11T17:03:04;2.92;;;1.10;;
21636;SDS011;10980;49.596;6.142;2022-07-11T17:06:27;1.10;;;1.00;;
21636;SDS011;10980;49.596;6.142;2022-07-11T17:09:49;1.90;;;1.20;;
21636;SDS011;10980;49.596;6.142;2022-07-11T17:13:12;1.08;;;0.73;;
21636;SDS011;10980;49.596;6.142;2022-07-11T17:16:34;1.20;;;0.80;;
21636;SDS011;10980;49.596;6.142;2022-07-11T17:19:57;1.35;;;1.00;;
21636;SDS011;10980;49.596;6.142;2022-07-11T17:23:19;1.58;;;0.93;;
21636;SDS011;10980;49.596;6.142;2022-07-11T17:26:41;4.00;;;1.42;;
21636;SDS011;10980;49.596;6.142;2022-07-11T17:30:10;1.77;;;1.40;;
21636;SDS011;10980;49.596;6.142;2022-07-11T17:33:33;1.85;;;1.38;;
21636;SDS011;10980;49.596;6.142;2022-07-11T17:36:54;5.43;;;1.45;;
21636;SDS011;10980;49.596;6.142;2022-07-11T17:40:16;4.63;;;1.80;;
21636;SDS011;10980;49.596;6.142;2022-07-11T17:43:39;2.85;;;1.60;;
21636;SDS011;10980;49.596;6.142;2022-07-11T17:47:01;12.82;;;2.13;;
21636;SDS011;10980;49.596;6.142;2022-07-11T17:50:22;2.50;;;1.77;;
21636;SDS011;10980;49.596;6.142;2022-07-11T17:53:44;6.18;;;1.95;;
21636;SDS011;10980;49.596;6.142;2022-07-11T17:57:06;5.35;;;2.00;;
21636;SDS011;10980;49.596;6.142;2022-07-11T18:00:28;4.75;;;2.17;;
21636;SDS011;10980;49.596;6.142;2022-07-11T18:03:50;5.20;;;2.22;;
21636;SDS011;10980;49.596;6.142;2022-07-11T18:07:12;4.15;;;1.88;;
21636;SDS011;10980;49.596;6.142;2022-07-11T18:10:35;3.03;;;2.10;;
21636;SDS011;10980;49.596;6.142;2022-07-11T18:13:56;8.65;;;4.22;;
21636;SDS011;10980;49.596;6.142;2022-07-11T18:17:18;7.20;;;4.32;;
21636;SDS011;10980;49.596;6.142;2022-07-11T18:20:40;9.15;;;4.22;;
21636;SDS011;10980;49.596;6.142;2022-07-11T18:24:08;5.97;;;4.15;;
21636;SDS011;10980;49.596;6.142;2022-07-11T18:27:29;5.90;;;3.22;;
21636;SDS011;10980;49.596;6.142;2022-07-11T18:30:51;4.82;;;3.45;;
21636;SDS011;10980;49.596;6.142;2022-07-11T18:34:13;5.93;;;3.50;;
21636;SDS011;10980;49.596;6.142;2022-07-11T18:37:35;4.78;;;3.42;;
21636;SDS011;10980;49.596;6.142;2022-07-11T18:40:57;6.15;;;4.00;;
21636;SDS011;10980;49.596;6.142;2022-07-11T18:44:34;8.23;;;3.33;;
21636;SDS011;10980;49.596;6.142;2022-07-11T18:47:56;4.85;;;3.38;;
21636;SDS011;10980;49.596;6.142;2022-07-11T18:51:19;5.20;;;3.55;;
21636;SDS011;10980;49.596;6.142;2022-07-11T18:54:41;6.68;;;3.88;;
21636;SDS011;10980;49.596;6.142;2022-07-11T18:58:02;6.50;;;4.32;;
21636;SDS011;10980;49.596;6.142;2022-07-11T19:01:24;6.70;;;4.05;;
21636;SDS011;10980;49.596;6.142;2022-07-11T19:04:46;9.55;;;3.95;;
21636;SDS011;10980;49.596;6.142;2022-07-11T19:08:08;8.23;;;4.20;;
21636;SDS011;10980;49.596;6.142;2022-07-11T19:11:30;6.45;;;4.22;;
21636;SDS011;10980;49.596;6.142;2022-07-11T19:15:00;8.18;;;4.70;;
21636;SDS011;10980;49.596;6.142;2022-07-11T19:18:22;6.15;;;4.47;;
21636;SDS011;10980;49.596;6.142;2022-07-11T19:21:44;10.02;;;4.88;;
21636;SDS011;10980;49.596;6.142;2022-07-11T19:25:06;8.45;;;5.05;;
21636;SDS011;10980;49.596;6.142;2022-07-11T19:28:28;7.78;;;5.30;;
21636;SDS011;10980;49.596;6.142;2022-07-11T19:31:50;7.40;;;4.88;;
21636;SDS011;10980;49.596;6.142;2022-07-11T19:35:12;8.23;;;5.25;;
21636;SDS011;10980;49.596;6.142;2022-07-11T19:38:34;8.35;;;5.15;;
21636;SDS011;10980;49.596;6.142;2022-07-11T19:41:56;8.57;;;5.05;;
21636;SDS011;10980;49.596;6.142;2022-07-11T19:45:18;10.02;;;5.57;;
21636;SDS011;10980;49.596;6.142;2022-07-11T19:48:40;7.88;;;5.18;;
21636;SDS011;10980;49.596;6.142;2022-07-11T19:52:02;11.02;;;5.65;;
21636;SDS011;10980;49.596;6.142;2022-07-11T19:55:24;9.25;;;5.68;;
21636;SDS011;10980;49.596;6.142;2022-07-11T19:59:05;8.07;;;5.43;;
21636;SDS011;10980;49.596;6.142;2022-07-11T20:02:26;7.75;;;5.20;;
21636;SDS011;10980;49.596;6.142;2022-07-11T20:05:50;8.70;;;4.97;;
21636;SDS011;10980;49.596;6.142;2022-07-11T20:09:12;10.25;;;5.15;;
21636;SDS011;10980;49.596;6.142;2022-07-11T20:12:34;12.32;;;5.32;;
21636;SDS011;10980;49.596;6.142;2022-07-11T20:15:56;6.72;;;4.88;;
21636;SDS011;10980;49.596;6.142;2022-07-11T20:19:19;11.73;;;5.22;;
21636;SDS011;10980;49.596;6.142;2022-07-11T20:22:40;8.55;;;5.10;;
21636;SDS011;10980;49.596;6.142;2022-07-11T20:26:02;7.35;;;4.78;;
21636;SDS011;10980;49.596;6.142;2022-07-11T20:29:24;8.35;;;4.97;;
21636;SDS011;10980;49.596;6.142;2022-07-11T20:32:46;12.63;;;5.07;;
21636;SDS011;10980;49.596;6.142;2022-07-11T20:36:09;7.45;;;5.30;;